Time;durP1;ratioP1;P1;durP2;ratioP2;P2;SDS_P1;SDS_P2;PMS_P1;PMS_P2;Temp;Humidity;BMP_temperature;BMP_pressure;BME280_temperature;BME280_humidity;BME280_pressure;Samples;Min_cycle;Max_cycle;Signal;HPM_P1;HPM_P2
2022/08/22 00:02:35;;;;;;;3.55;2.25;;;;;;;19.74;55.96;98827.84;5061492;28;20013;-83
2022/08/22 00:05:01;;;;;;;2.58;2.38;;;;;;;19.84;55.75;98824.88;5060201;28;20024;-83
2022/08/22 00:08:06;;;;;;;4.00;2.30;;;;;;;19.77;56.00;98822.59;5061086;28;20028;-83
2022/08/22 00:10:46;;;;;;;4.28;1.98;;;;;;;19.52;56.33;98830.56;5076930;28;20115;-83
2022/08/22 00:13:30;;;;;;;4.50;2.10;;;;;;;19.41;56.60;98811.03;5060157;28;20025;-83
2022/08/22 00:16:02;;;;;;;3.22;2.10;;;;;;;19.49;56.92;98831.97;5063498;28;20025;-83
2022/08/22 00:18:49;;;;;;;2.53;2.13;;;;;;;19.35;56.54;98815.00;5062678;28;20482;-83
2022/08/22 00:21:35;;;;;;;3.35;2.08;;;;;;;19.49;56.60;98831.97;5061021;28;20551;-83
2022/08/22 00:24:19;;;;;;;3.40;2.25;;;;;;;19.53;56.71;98829.47;5058344;28;20051;-83
2022/08/22 00:26:54;;;;;;;4.38;2.05;;;;;;;19.51;56.76;98823.53;5063502;28;20029;-83
2022/08/22 00:29:26;;;;;;;4.50;2.10;;;;;;;19.44;56.80;98829.38;5074096;28;20495;-83
2022/08/22 00:32:02;;;;;;;2.40;2.20;;;;;;;19.46;56.76;98820.97;5059609;28;20441;-83
2022/08/22 00:34:34;;;;;;;3.30;2.33;;;;;;;19.50;56.72;98827.34;5057636;28;20365;-83
2022/08/22 00:37:14;;;;;;;4.45;2.65;;;;;;;19.54;56.23;98826.44;5063153;28;20020;-83
2022/08/22 00:39:49;;;;;;;3.20;2.08;;;;;;;19.30;56.32;98796.94;5062924;28;20492;-83
2022/08/22 00:42:33;;;;;;;3.90;2.13;;;;;;;19.35;56.95;98817.69;5061414;28;20630;-83
2022/08/22 00:45:43;;;;;;;4.22;2.05;;;;;;;19.21;56.59;98804.16;5058628;28;20032;-83
2022/08/22 00:48:18;;;;;;;2.97;2.10;;;;;;;19.24;56.81;98816.28;4986123;28;20120;-83
2022/08/22 00:51:02;;;;;;;3.13;2.40;;;;;;;19.25;57.12;98815.97;5075357;28;20024;-83
2022/08/22 00:53:30;;;;;;;3.03;2.25;;;;;;;18.94;57.54;98816.94;5057756;28;20033;-83
2022/08/22 00:56:27;;;;;;;4.97;1.77;;;;;;;18.91;57.82;98820.28;5068106;28;20496;-82
2022/08/22 00:59:07;;;;;;;2.58;2.20;;;;;;;19.22;57.17;98826.63;5057821;28;20078;-83
2022/08/22 01:01:37;;;;;;;3.10;2.42;;;;;;;19.25;57.22;98824.09;5063008;28;20339;-82
2022/08/22 01:04:37;;;;;;;6.55;2.58;;;;;;;19.26;56.47;98822.97;5064986;28;20055;-83
2022/08/22 01:07:17;;;;;;;2.42;2.00;;;;;;;19.12;56.98;98824.13;5058541;28;20066;-83
2022/08/22 01:10:02;;;;;;;4.53;2.60;;;;;;;18.93;57.49;98809.94;5056612;28;20400;-83
2022/08/22 01:12:50;;;;;;;8.02;2.78;;;;;;;19.11;57.13;98817.13;5063239;28;20070;-82
2022/08/22 01:15:23;;;;;;;4.10;2.20;;;;;;;18.96;57.58;98823.66;5063239;28;20024;-83
2022/08/22 01:18:13;;;;;;;6.18;2.92;;;;;;;18.93;57.62;98816.16;5062941;28;20028;-83
2022/08/22 01:21:04;;;;;;;2.67;2.28;;;;;;;18.87;57.77;98821.97;5056981;28;20040;-83
2022/08/22 01:23:48;;;;;;;3.35;2.17;;;;;;;18.83;57.98;98821.00;5058349;28;20025;-82
2022/08/22 01:26:38;;;;;;;2.40;2.05;;;;;;;18.82;57.57;98828.28;5060200;28;20032;-83
2022/08/22 01:29:09;;;;;;;5.35;2.33;;;;;;;18.66;57.65;98833.22;5057056;28;20036;-83
2022/08/22 01:32:12;;;;;;;5.05;3.03;;;;;;;18.60;58.41;98833.63;5058368;28;20380;-82
2022/08/22 01:34:52;;;;;;;5.40;2.50;;;;;;;18.72;58.09;98827.72;5065558;28;20035;-83
2022/08/22 01:37:42;;;;;;;2.97;2.22;;;;;;;18.58;57.66;98817.69;5077078;28;20025;-83
2022/08/22 01:40:34;;;;;;;2.97;2.08;;;;;;;18.58;57.80;98808.78;5066521;28;20039;-83
2022/08/22 01:43:05;;;;;;;3.00;2.10;;;;;;;18.86;57.69;98832.00;5058764;28;20037;-83
2022/08/22 01:45:52;;;;;;;3.30;2.05;;;;;;;18.95;57.41;98829.38;5057459;28;20039;-83
2022/08/22 01:48:23;;;;;;;;;;;;;;;18.80;57.42;98838.63;5064772;28;20270;-83
2022/08/22 01:50:56;;;;;;;2.55;1.85;;;;;;;18.67;57.70;98834.03;5064396;28;19955;-82
2022/08/22 01:53:52;;;;;;;2.83;2.10;;;;;;;18.55;57.99;98829.09;5062377;28;20112;-83
2022/08/22 01:56:20;;;;;;;4.40;2.60;;;;;;;18.51;58.03;98832.72;5058636;28;20036;-83
2022/08/22 01:59:00;;;;;;;4.82;1.98;;;;;;;18.53;58.41;98833.22;5077517;28;20090;-83
2022/08/22 02:01:40;;;;;;;6.20;2.35;;;;;;;18.51;58.14;98832.72;5068238;28;20031;-83
2022/08/22 02:04:18;;;;;;;2.13;1.95;;;;;;;18.40;58.22;98828.56;5064865;28;20488;-82
2022/08/22 02:07:16;;;;;;;2.50;2.30;;;;;;;18.48;58.18;98825.19;5065266;28;20087;-83
2022/08/22 02:10:00;;;;;;;3.63;2.50;;;;;;;18.41;58.33;98824.78;5054431;28;20047;-83
2022/08/22 02:12:41;;;;;;;4.30;2.47;;;;;;;18.39;58.47;98833.16;5065649;28;20122;-82
2022/08/22 02:15:14;;;;;;;6.45;2.30;;;;;;;18.34;58.67;98827.88;5064936;28;20468;-83
2022/08/22 02:18:04;;;;;;;3.72;2.55;;;;;;;18.35;58.47;98823.25;5058365;28;20025;-82
2022/08/22 02:20:36;;;;;;;5.30;2.53;;;;;;;18.36;58.56;98832.97;5065953;28;20063;-82
2022/08/22 02:23:30;;;;;;;5.18;2.38;;;;;;;18.34;58.16;98829.75;5065705;28;20070;-82
2022/08/22 02:25:55;;;;;;;3.28;2.30;;;;;;;18.28;58.79;98837.16;5063545;28;20050;-83
2022/08/22 02:28:46;;;;;;;6.18;2.80;;;;;;;18.27;58.40;98834.75;5062068;28;20111;-83
2022/08/22 02:31:19;;;;;;;2.75;2.50;;;;;;;18.07;58.93;98810.81;5063419;28;20024;-83
2022/08/22 02:33:47;;;;;;;3.95;2.40;;;;;;;18.24;58.34;98829.97;5060189;28;20029;-82
2022/08/22 02:36:19;;;;;;;3.75;2.53;;;;;;;18.21;58.42;98831.38;5062288;28;20028;-82
2022/08/22 02:38:58;;;;;;;3.50;2.53;;;;;;;18.20;58.67;98824.34;5065054;28;20085;-82
2022/08/22 02:41:52;;;;;;;2.53;2.20;;;;;;;18.13;58.71;98832.03;5063986;28;20384;-82
2022/08/22 02:44:25;;;;;;;4.07;2.28;;;;;;;18.12;59.10;98821.53;5055360;28;20025;-83
2022/08/22 02:47:15;;;;;;;4.93;2.40;;;;;;;17.97;58.87;98809.09;5061941;28;20029;-82
2022/08/22 02:49:58;;;;;;;3.15;2.33;;;;;;;18.08;59.35;98826.75;5067181;28;20115;-83
2022/08/22 02:52:54;;;;;;;4.45;2.78;;;;;;;17.98;58.85;98822.31;5073676;28;20035;-82
2022/08/22 02:55:50;;;;;;;4.13;3.00;;;;;;;17.98;59.49;98830.41;5026329;28;20044;-83
2022/08/22 02:58:36;;;;;;;6.17;3.33;;;;;;;17.91;59.15;98819.19;5050383;28;20044;-83
2022/08/22 03:01:01;;;;;;;4.43;3.50;;;;;;;17.93;59.12;98821.59;5062563;28;20097;-82
2022/08/22 03:03:30;;;;;;;3.13;2.53;;;;;;;17.82;59.58;98802.06;5065138;28;20059;-83
2022/08/22 03:06:01;;;;;;;6.55;3.30;;;;;;;17.91;59.35;98818.38;5055373;28;20383;-83
2022/08/22 03:08:31;;;;;;;4.13;2.60;;;;;;;17.88;59.27;98814.38;5044209;28;20033;-83
2022/08/22 03:11:02;;;;;;;4.05;3.08;;;;;;;17.78;59.31;98803.75;5054746;28;20028;-83
2022/08/22 03:14:04;;;;;;;3.95;2.90;;;;;;;18.01;59.11;98815.50;5058257;28;20109;-83
2022/08/22 03:16:39;;;;;;;3.58;3.05;;;;;;;17.72;59.46;98794.13;5061831;28;20128;-83
2022/08/22 03:19:20;;;;;;;3.40;3.10;;;;;;;17.85;59.48;98819.56;5056922;28;20047;-82
2022/08/22 03:22:04;;;;;;;6.78;3.67;;;;;;;17.78;59.79;98817.25;5063676;28;20375;-82
2022/08/22 03:24:29;;;;;;;5.82;3.55;;;;;;;17.84;59.59;98821.47;5064605;28;20043;-83
2022/08/22 03:27:16;;;;;;;7.45;3.40;;;;;;;17.81;59.74;98822.06;5064198;28;20028;-82
2022/08/22 03:30:01;;;;;;;4.95;3.17;;;;;;;17.89;58.93;98818.69;5065853;28;20506;-83
2022/08/22 03:32:57;;;;;;;3.38;2.92;;;;;;;17.73;59.71;98821.94;5063028;28;20036;-83
2022/08/22 03:35:32;;;;;;;4.97;3.03;;;;;;;17.69;60.11;98820.94;5066248;28;20036;-82
2022/08/22 03:38:46;;;;;;;5.63;3.10;;;;;;;17.69;59.37;98820.94;5065233;28;20388;-82
2022/08/22 03:41:40;;;;;;;4.05;3.63;;;;;;;17.59;59.70;98805.69;5032021;28;20851;-82
2022/08/22 03:44:34;;;;;;;3.80;3.30;;;;;;;17.71;59.50;98822.22;5059998;28;20503;-83
2022/08/22 03:47:37;;;;;;;4.90;3.40;;;;;;;17.67;59.54;98815.03;5076209;28;20025;-83
2022/08/22 03:50:33;;;;;;;5.80;3.05;;;;;;;17.64;59.50;98827.22;5063801;28;20086;-82
2022/08/22 03:53:14;;;;;;;4.30;3.20;;;;;;;17.55;59.93;98828.16;5062418;28;20103;-83
2022/08/22 03:55:58;;;;;;;6.45;2.88;;;;;;;17.51;59.81;98833.38;5064266;28;20036;-83
2022/08/22 03:58:26;;;;;;;4.43;3.03;;;;;;;17.61;59.51;98837.78;5060505;28;20029;-83
2022/08/22 04:01:01;;;;;;;6.03;3.13;;;;;;;17.38;59.94;98808.97;5064299;28;20036;-82
2022/08/22 04:04:03;;;;;;;3.13;2.80;;;;;;;17.43;60.07;98842.06;5054223;28;20021;-83
2022/08/22 04:06:54;;;;;;;4.53;2.83;;;;;;;17.57;60.03;98837.56;5058272;28;20461;-82
2022/08/22 04:09:57;;;;;;;4.43;3.33;;;;;;;17.47;60.17;98837.72;5066674;28;20028;-83
2022/08/22 04:12:54;;;;;;;4.32;3.20;;;;;;;17.37;60.35;98837.03;5059570;28;20020;-83
2022/08/22 04:15:32;;;;;;;3.38;3.00;;;;;;;17.34;60.08;98838.44;5076367;28;20528;-82
2022/08/22 04:18:19;;;;;;;6.03;3.33;;;;;;;17.34;60.36;98848.44;5055675;28;20025;-82
2022/08/22 04:21:04;;;;;;;6.95;3.85;;;;;;;17.31;60.35;98841.72;5066605;28;20025;-82
2022/08/22 04:23:57;;;;;;;4.72;3.15;;;;;;;17.17;60.06;98824.66;5062442;28;20056;-82
2022/08/22 04:26:39;;;;;;;4.97;3.47;;;;;;;17.42;60.30;98847.78;5056358;28;20123;-83
2022/08/22 04:29:13;;;;;;;4.82;3.80;;;;;;;17.42;60.24;98850.47;5056458;28;20032;-82
2022/08/22 04:31:46;;;;;;;4.40;3.75;;;;;;;17.33;60.65;98849.50;5059689;28;20071;-82
2022/08/22 04:34:20;;;;;;;4.00;3.33;;;;;;;17.23;60.34;98850.47;5055366;28;20068;-82
2022/08/22 04:36:50;;;;;;;6.35;3.70;;;;;;;17.23;60.49;98856.66;5058010;28;20028;-83
2022/08/22 04:39:43;;;;;;;5.30;3.58;;;;;;;17.22;60.12;98846.16;5054952;28;20464;-83
2022/08/22 04:42:15;;;;;;;4.10;3.20;;;;;;;17.33;60.29;98852.22;5058550;28;20552;-82
2022/08/22 04:45:06;;;;;;;5.20;3.63;;;;;;;17.19;59.99;98846.72;5060178;28;20488;-82
2022/08/22 04:47:46;;;;;;;4.70;3.53;;;;;;;17.25;60.03;98867.94;5060427;28;20047;-82
2022/08/22 04:50:35;;;;;;;3.63;2.80;;;;;;;17.23;60.46;98872.06;5061008;28;20036;-82
2022/08/22 04:53:19;;;;;;;9.07;3.35;;;;;;;17.25;60.02;98861.78;5061012;28;20052;-82
2022/08/22 04:56:21;;;;;;;3.72;2.97;;;;;;;17.44;59.87;98876.06;5062324;28;20471;-82
2022/08/22 04:58:48;;;;;;;4.10;2.63;;;;;;;17.45;60.44;98872.25;5065755;28;20020;-82
2022/08/22 05:01:24;;;;;;;4.47;2.92;;;;;;;17.42;60.41;98862.06;5075888;28;20031;-82
2022/08/22 05:03:56;;;;;;;;;;;;;;;17.51;60.09;98881.13;5064450;28;20066;-82
2022/08/22 05:06:27;;;;;;;3.42;3.05;;;;;;;17.36;60.64;98844.34;5054820;28;20026;-82
2022/08/22 05:08:54;;;;;;;3.30;2.90;;;;;;;17.58;59.95;98871.56;5054675;28;20055;-82
2022/08/22 05:11:22;;;;;;;3.20;3.00;;;;;;;17.61;59.81;98876.38;5043063;28;20778;-82
2022/08/22 05:13:56;;;;;;;4.57;3.15;;;;;;;17.75;60.38;98890.75;5058214;28;20076;-82
2022/08/22 05:16:33;;;;;;;4.80;3.58;;;;;;;17.70;60.09;98871.94;5066845;28;20032;-82
2022/08/22 05:19:08;;;;;;;3.63;2.83;;;;;;;17.62;60.08;98867.19;5058940;28;20112;-83
2022/08/22 05:21:39;;;;;;;4.40;3.50;;;;;;;17.70;60.10;98869.22;5061289;28;20095;-83
2022/08/22 05:24:13;;;;;;;4.60;3.42;;;;;;;17.94;60.56;98888.00;5066633;28;20431;-83
2022/08/22 05:26:43;;;;;;;8.13;3.42;;;;;;;17.88;60.17;98879.19;5061115;28;20388;-82
2022/08/22 05:29:13;;;;;;;3.53;3.20;;;;;;;17.94;60.56;98888.81;5062046;28;20047;-83
2022/08/22 05:31:48;;;;;;;4.75;4.20;;;;;;;17.02;64.93;98862.63;5056874;28;20063;-82
2022/08/22 05:34:21;;;;;;;5.97;3.78;;;;;;;17.04;63.90;98879.31;5061255;28;20048;-82
2022/08/22 05:36:54;;;;;;;5.47;3.67;;;;;;;16.85;64.14;98873.09;5058281;28;20166;-83
2022/08/22 05:39:23;;;;;;;3.80;3.47;;;;;;;17.54;62.44;98862.44;5080161;28;20077;-82
2022/08/22 05:41:52;;;;;;;5.40;4.05;;;;;;;17.76;62.63;98889.63;5062747;28;20396;-83
2022/08/22 05:44:31;;;;;;;7.57;4.60;;;;;;;17.59;63.97;98900.16;5066471;28;20039;-83
2022/08/22 05:47:04;;;;;;;5.93;5.05;;;;;;;17.26;65.51;98898.44;5061109;28;20031;-83
2022/08/22 05:49:44;;;;;;;5.13;4.50;;;;;;;17.20;65.75;98894.22;5064233;28;20060;-83
2022/08/22 05:52:37;;;;;;;10.13;5.20;;;;;;;17.14;66.30;98888.09;5062020;28;20017;-83
2022/08/22 05:55:38;;;;;;;12.35;5.15;;;;;;;17.13;66.64;98894.56;5060558;28;20037;-83
2022/08/22 05:58:34;;;;;;;7.70;4.90;;;;;;;17.02;66.31;98890.41;5051115;28;21612;-83
2022/08/22 06:01:21;;;;;;;12.77;5.15;;;;;;;17.17;66.33;98894.78;5067988;28;20039;-83
2022/08/22 06:04:21;;;;;;;11.30;5.65;;;;;;;16.98;67.75;98900.16;5052609;28;20123;-83
2022/08/22 06:07:13;;;;;;;11.15;5.57;;;;;;;16.78;67.43;98872.63;5058796;28;20029;-83
2022/08/22 06:09:47;;;;;;;12.65;5.40;;;;;;;16.84;68.34;98898.44;5059981;28;20388;-83
2022/08/22 06:12:29;;;;;;;13.52;5.57;;;;;;;16.78;68.07;98904.97;5066090;28;20116;-83
2022/08/22 06:15:16;;;;;;;10.18;5.80;;;;;;;15.90;71.03;98910.63;5066316;28;20020;-83
2022/08/22 06:17:48;;;;;;;9.20;4.45;;;;;;;16.28;68.95;98880.16;5060329;28;20565;-83
2022/08/22 06:20:20;;;;;;;6.65;4.70;;;;;;;17.12;66.98;98906.44;5064123;28;20115;-83
2022/08/22 06:22:54;;;;;;;14.52;4.82;;;;;;;16.93;65.96;98878.63;5060913;28;20392;-82
2022/08/22 06:25:34;;;;;;;8.77;4.85;;;;;;;17.39;66.14;98897.72;5062614;28;20066;-83
2022/08/22 06:28:12;;;;;;;7.63;4.28;;;;;;;16.94;67.11;98914.50;5063947;28;20025;-83
2022/08/22 06:30:38;;;;;;;8.70;5.45;;;;;;;17.53;65.60;98892.44;5070864;28;20063;-82
2022/08/22 06:33:15;;;;;;;10.80;5.25;;;;;;;17.90;64.92;98905.91;5072593;28;20145;-83
2022/08/22 06:39:08;;;;;;;14.45;4.80;;;;;;;17.97;64.00;98901.72;5066607;28;20039;-82
2022/08/22 06:41:40;;;;;;;6.72;4.55;;;;;;;17.83;64.02;98887.38;5072203;28;20044;-83
2022/08/22 06:44:07;;;;;;;11.35;5.20;;;;;;;18.05;64.05;98896.75;5057854;28;20032;-83
2022/08/22 06:46:36;;;;;;;9.45;5.90;;;;;;;17.48;65.61;98904.06;5072275;28;20086;-83
2022/08/22 06:49:04;;;;;;;8.73;4.60;;;;;;;17.61;64.86;98906.06;5073661;28;20037;-83
2022/08/22 06:51:30;;;;;;;10.32;5.10;;;;;;;17.91;63.94;98886.69;5057694;28;20529;-83
2022/08/22 06:54:02;;;;;;;8.15;4.53;;;;;;;18.01;64.03;98903.84;5065217;28;20024;-83
2022/08/22 06:56:49;;;;;;;16.65;5.70;;;;;;;18.30;63.31;98899.03;5066529;28;20491;-83
2022/08/22 06:59:21;;;;;;;7.30;4.72;;;;;;;18.15;63.62;98894.66;5063677;28;20025;-83
2022/08/22 07:01:46;;;;;;;7.60;4.38;;;;;;;18.05;64.12;98907.53;5065595;28;20017;-83
2022/08/22 07:04:12;;;;;;;5.38;4.70;;;;;;;18.20;63.57;98899.19;5056502;28;20035;-84
2022/08/22 07:06:42;;;;;;;9.13;6.05;;;;;;;17.39;67.14;98915.78;5063978;28;20427;-83
2022/08/22 07:09:24;;;;;;;9.23;6.05;;;;;;;16.85;69.37;98883.88;5065843;28;20025;-83
2022/08/22 07:11:52;;;;;;;15.55;6.55;;;;;;;16.53;71.41;98918.72;5077479;28;20020;-83
2022/08/22 07:14:29;;;;;;;8.05;6.53;;;;;;;16.24;72.17;98902.53;5049773;28;20380;-83
2022/08/22 07:17:07;;;;;;;9.07;6.15;;;;;;;16.60;72.12;98924.59;5066022;28;20024;-83
2022/08/22 07:19:36;;;;;;;12.32;6.70;;;;;;;16.81;70.87;98912.50;5064862;28;20039;-84
2022/08/22 07:22:13;;;;;;;6.78;4.68;;;;;;;18.40;64.56;98921.25;5050543;28;20035;-83
2022/08/22 07:24:45;;;;;;;10.38;4.60;;;;;;;18.64;63.79;98913.81;5063383;28;20062;-83
2022/08/22 07:27:36;;;;;;;6.38;3.78;;;;;;;18.80;62.98;98910.84;5057909;28;20024;-82
2022/08/22 07:30:07;;;;;;;9.73;4.93;;;;;;;18.73;63.47;98913.13;5056502;28;20024;-83
2022/08/22 07:32:51;;;;;;;10.18;4.80;;;;;;;18.20;67.39;98878.38;5060433;28;20034;-84
2022/08/22 07:35:19;;;;;;;8.00;3.65;;;;;;;18.32;65.05;98899.53;5074133;28;20408;-83
2022/08/22 07:37:47;;;;;;;7.10;3.72;;;;;;;18.98;63.31;98916.13;5064009;28;20028;-83
2022/08/22 07:40:46;;;;;;;7.90;3.90;;;;;;;18.81;64.09;98920.53;5065716;28;20036;-83
2022/08/22 07:43:14;;;;;;;9.98;4.55;;;;;;;18.09;66.33;98916.66;5064930;28;20035;-83
2022/08/22 07:45:48;;;;;;;5.97;4.25;;;;;;;17.92;65.38;98914.50;5064589;28;20480;-83
2022/08/22 07:48:32;;;;;;;5.50;3.72;;;;;;;18.81;63.42;98902.41;5068704;28;20031;-83
2022/08/22 07:51:00;;;;;;;6.25;3.45;;;;;;;19.15;62.30;98915.53;5058833;28;20465;-83
2022/08/22 07:53:33;;;;;;;8.15;4.50;;;;;;;18.48;63.01;98909.78;5060712;28;20025;-83
2022/08/22 07:56:01;;;;;;;8.85;4.00;;;;;;;17.95;63.44;98920.13;5063778;28;20021;-83
2022/08/22 07:58:30;;;;;;;8.52;4.82;;;;;;;17.67;65.41;98906.81;5062990;28;20043;-83
2022/08/22 08:00:57;;;;;;;9.95;4.05;;;;;;;17.75;65.55;98900.75;5059995;28;20940;-83
2022/08/22 08:03:26;;;;;;;5.00;4.53;;;;;;;18.00;65.82;98930.03;5057029;28;20071;-82
2022/08/22 08:05:52;;;;;;;7.63;4.22;;;;;;;18.02;65.79;98927.06;5039244;28;20028;-82
2022/08/22 08:08:26;;;;;;;6.70;4.15;;;;;;;18.16;65.20;98917.91;5060317;28;20028;-82
2022/08/22 08:10:55;;;;;;;8.57;4.25;;;;;;;18.11;65.01;98898.28;5046253;28;20036;-82
2022/08/22 08:13:27;;;;;;;9.05;4.13;;;;;;;18.06;65.18;98909.97;5048206;28;20755;-82
2022/08/22 08:15:53;;;;;;;5.97;3.40;;;;;;;18.32;64.98;98905.75;5061088;28;20021;-83
2022/08/22 08:18:24;;;;;;;8.30;4.00;;;;;;;18.37;65.68;98910.25;5056300;28;20032;-83
2022/08/22 08:20:53;;;;;;;9.73;4.28;;;;;;;18.26;62.68;98914.22;5030155;28;20029;-82
2022/08/22 08:23:20;;;;;;;13.63;4.03;;;;;;;18.28;65.17;98879.59;5060199;28;20040;-82
2022/08/22 08:26:09;;;;;;;4.80;3.47;;;;;;;18.95;63.40;98913.22;5044194;28;20058;-83
2022/08/22 08:28:43;;;;;;;7.68;4.43;;;;;;;18.58;63.31;98896.09;5063156;28;21595;-82
2022/08/22 08:31:30;;;;;;;10.73;4.15;;;;;;;18.70;62.80;98909.91;5060770;28;20462;-82
2022/08/22 08:34:21;;;;;;;10.95;3.67;;;;;;;19.02;63.33;98909.03;5057846;28;20091;-81
2022/08/22 08:36:58;;;;;;;4.18;3.40;;;;;;;18.98;62.12;98907.22;5063400;28;20116;-82
2022/08/22 08:39:34;;;;;;;11.60;4.60;;;;;;;19.25;61.94;98899.88;5061061;28;20054;-81
2022/08/22 08:42:29;;;;;;;7.80;3.13;;;;;;;19.12;61.23;98911.53;5064411;28;20275;-82
2022/08/22 08:45:00;;;;;;;7.10;4.05;;;;;;;19.33;61.43;98903.78;5063297;28;20070;-82
2022/08/22 08:47:48;;;;;;;6.00;3.10;;;;;;;19.96;60.94;98903.72;5063316;28;20032;-82
2022/08/22 08:50:27;;;;;;;11.20;3.58;;;;;;;19.61;61.33;98904.53;5062439;28;20506;-82
2022/08/22 08:53:02;;;;;;;7.78;3.83;;;;;;;19.63;60.54;98911.25;5060707;28;20035;-82
2022/08/22 08:56:08;;;;;;;4.90;3.20;;;;;;;19.88;60.94;98899.00;5062866;28;20047;-82
2022/08/22 08:58:43;;;;;;;8.40;3.92;;;;;;;19.74;60.79;98904.50;5058529;28;20474;-82
2022/08/22 09:01:51;;;;;;;10.93;4.00;;;;;;;19.77;61.36;98900.34;5064582;28;20025;-81
2022/08/22 09:04:31;;;;;;;;;;;;;;;19.94;60.11;98901.28;5027164;28;20537;-82
2022/08/22 09:07:06;;;;;;;12.05;3.67;;;;;;;20.06;60.26;98904.25;5078338;28;19916;-81
2022/08/22 09:09:34;;;;;;;8.30;2.95;;;;;;;20.91;59.44;98897.69;5064778;28;20020;-82
2022/08/22 09:12:09;;;;;;;6.22;3.22;;;;;;;21.19;58.47;98893.66;5070376;28;20074;-82
2022/08/22 09:14:47;;;;;;;12.52;4.95;;;;;;;20.76;58.99;98898.13;5060585;28;21013;-82
2022/08/22 09:17:42;;;;;;;7.88;4.25;;;;;;;21.05;58.44;98878.59;5067095;28;20429;-82
2022/08/22 09:20:23;;;;;;;7.68;4.28;;;;;;;20.90;59.42;98896.09;5060775;28;20064;-82
2022/08/22 09:22:57;;;;;;;6.35;3.72;;;;;;;20.99;58.71;98893.41;5065237;28;20028;-82
2022/08/22 09:25:44;;;;;;;5.93;3.25;;;;;;;21.35;58.27;98891.28;5069101;28;20016;-82
2022/08/22 09:28:16;;;;;;;6.47;3.63;;;;;;;21.38;57.06;98890.66;5082406;28;20024;-82
2022/08/22 09:30:47;;;;;;;5.03;3.35;;;;;;;21.24;56.29;98892.69;5061749;28;20024;-82
2022/08/22 09:33:16;;;;;;;8.50;4.20;;;;;;;21.19;58.64;98893.66;5062969;28;20072;-82
2022/08/22 09:36:01;;;;;;;8.50;4.05;;;;;;;21.22;57.49;98881.34;5065001;28;20040;-82
2022/08/22 09:38:46;;;;;;;10.85;5.20;;;;;;;21.27;58.48;98876.59;5081903;28;20036;-82
2022/08/22 09:41:54;;;;;;;9.13;4.10;;;;;;;21.49;56.47;98883.78;5068626;28;20024;-82
2022/08/22 09:44:26;;;;;;;5.93;3.55;;;;;;;21.90;56.18;98889.56;5050582;28;20032;-82
2022/08/22 09:47:22;;;;;;;9.07;3.72;;;;;;;22.33;56.07;98878.63;5065815;28;20134;-82
2022/08/22 09:50:15;;;;;;;6.25;2.83;;;;;;;22.64;55.41;98875.66;5071569;28;20028;-83
2022/08/22 09:53:20;;;;;;;6.18;3.30;;;;;;;22.68;54.84;98871.97;5056378;28;20040;-82
2022/08/22 09:56:07;;;;;;;6.97;3.53;;;;;;;22.46;54.84;98844.16;5061607;28;20106;-82
2022/08/22 09:58:46;;;;;;;4.47;3.22;;;;;;;22.74;53.87;98864.41;5069177;28;20055;-82
2022/08/22 10:01:26;;;;;;;6.68;3.65;;;;;;;22.11;53.26;98847.00;5067253;28;20029;-82
2022/08/22 10:04:13;;;;;;;15.02;4.85;;;;;;;22.08;54.75;98855.78;5052048;28;20028;-82
2022/08/22 10:07:09;;;;;;;7.03;3.25;;;;;;;22.18;54.28;98860.91;5068047;28;20082;-82
2022/08/22 10:09:59;;;;;;;6.35;4.13;;;;;;;22.36;53.71;98856.22;5060040;28;20511;-82
2022/08/22 10:12:30;;;;;;;6.88;3.03;;;;;;;23.03;53.95;98848.06;5057143;28;20025;-82
2022/08/22 10:15:15;;;;;;;3.72;3.17;;;;;;;23.39;52.03;98850.28;5053241;28;20094;-82
2022/08/22 10:17:55;;;;;;;5.55;2.90;;;;;;;23.54;52.79;98834.13;5064934;28;20037;-82
2022/08/22 10:20:28;;;;;;;3.55;3.08;;;;;;;23.34;52.53;98826.75;5070046;28;20518;-82
2022/08/22 10:23:16;;;;;;;4.53;2.90;;;;;;;23.48;49.18;98840.13;5071306;28;20495;-82
2022/08/22 10:25:52;;;;;;;3.90;2.85;;;;;;;23.73;49.68;98830.91;5070593;28;20029;-82
2022/08/22 10:28:38;;;;;;;4.32;2.53;;;;;;;23.61;50.11;98834.38;5070492;28;20035;-82
2022/08/22 10:31:32;;;;;;;4.85;2.92;;;;;;;23.34;49.50;98815.06;5067177;28;20024;-82
2022/08/22 10:34:15;;;;;;;7.55;2.75;;;;;;;24.07;50.39;98838.00;5068665;28;20029;-82
2022/08/22 10:37:32;;;;;;;4.53;2.58;;;;;;;23.80;48.61;98831.16;5055919;28;20067;-82
2022/08/22 10:40:11;;;;;;;5.18;2.53;;;;;;;23.83;48.03;98817.66;4971606;28;20620;-82
2022/08/22 10:42:52;;;;;;;4.43;2.88;;;;;;;24.47;48.66;98820.66;4967629;28;20069;-82
2022/08/22 10:45:40;;;;;;;4.28;2.95;;;;;;;24.35;47.53;98812.44;5028854;28;20431;-83
2022/08/22 10:48:09;;;;;;;4.45;3.22;;;;;;;24.49;49.02;98820.31;5081279;28;20108;-82
2022/08/22 10:50:41;;;;;;;5.18;2.60;;;;;;;25.04;47.75;98811.56;5066313;28;20024;-82
2022/08/22 10:53:32;;;;;;;4.55;2.97;;;;;;;24.87;46.29;98798.97;5065890;28;20019;-82
2022/08/22 10:56:25;;;;;;;6.53;2.50;;;;;;;25.19;46.64;98808.94;5070310;28;20115;-82
2022/08/22 10:59:21;;;;;;;4.85;2.40;;;;;;;25.60;46.76;98798.81;5029763;28;20045;-83
2022/08/22 11:02:23;;;;;;;6.68;2.70;;;;;;;25.73;46.26;98801.13;5058733;28;20025;-83
2022/08/22 11:05:19;;;;;;;3.40;2.55;;;;;;;25.75;46.09;98796.09;5033053;28;20123;-82
2022/08/22 11:08:19;;;;;;;4.32;2.70;;;;;;;25.81;44.19;98788.47;5063157;28;20404;-83
2022/08/22 11:11:05;;;;;;;6.05;2.88;;;;;;;25.15;44.18;98794.38;5078791;28;20035;-83
2022/08/22 11:13:42;;;;;;;5.80;2.63;;;;;;;25.12;43.78;98791.50;5066916;28;20492;-83
2022/08/22 11:16:29;;;;;;;3.95;2.88;;;;;;;24.80;44.18;98793.28;5063289;28;20400;-83
2022/08/22 11:19:13;;;;;;;11.82;2.70;;;;;;;25.11;45.15;98789.94;5067814;28;20021;-82
2022/08/22 11:21:57;;;;;;;6.28;2.75;;;;;;;25.15;44.58;98797.09;5069336;28;20035;-82
2022/08/22 11:24:25;;;;;;;9.02;2.90;;;;;;;24.99;44.77;98789.94;5064808;28;20024;-82
2022/08/22 11:26:57;;;;;;;9.27;2.70;;;;;;;25.07;44.49;98783.56;5068700;28;20028;-82
2022/08/22 11:29:43;;;;;;;7.40;2.45;;;;;;;25.42;45.10;98781.91;5079679;28;20483;-82
2022/08/22 11:32:35;;;;;;;;;;;;;;;26.36;43.25;98782.09;5072249;28;20434;-83
2022/08/22 11:35:06;;;;;;;6.68;2.65;;;;;;;26.34;44.63;98781.66;5056087;28;19916;-82
2022/08/22 11:37:54;;;;;;;7.43;3.33;;;;;;;26.80;42.75;98775.34;5049230;28;20034;-83
2022/08/22 11:40:31;;;;;;;4.82;2.40;;;;;;;27.17;42.99;98779.31;5061504;28;20040;-83
2022/08/22 11:43:19;;;;;;;2.95;1.70;;;;;;;27.81;42.63;98784.16;5061826;28;20365;-83
2022/08/22 11:45:52;;;;;;;5.80;2.85;;;;;;;27.18;40.75;98763.66;5062302;28;20020;-83
2022/08/22 11:48:40;;;;;;;3.88;2.40;;;;;;;27.45;40.94;98759.97;5052092;28;20543;-82
2022/08/22 11:51:14;;;;;;;3.60;2.42;;;;;;;27.34;41.15;98778.91;5073056;28;20415;-83
2022/08/22 11:53:54;;;;;;;3.17;2.33;;;;;;;27.38;41.35;98751.59;5064098;28;20545;-83
2022/08/22 11:56:29;;;;;;;5.07;3.08;;;;;;;27.53;41.72;98772.66;5062510;28;20096;-82
2022/08/22 11:59:04;;;;;;;5.40;2.40;;;;;;;28.02;43.05;98776.34;5071408;28;20214;-83
2022/08/22 12:01:51;;;;;;;4.30;2.77;;;;;;;28.18;42.61;98763.31;5069027;28;20109;-83
2022/08/22 12:04:42;;;;;;;7.28;2.90;;;;;;;27.86;41.94;98764.69;5064283;28;20776;-83
2022/08/22 12:07:31;;;;;;;4.72;3.00;;;;;;;28.03;39.85;98753.25;5058199;28;20041;-83
2022/08/22 12:09:58;;;;;;;8.20;2.80;;;;;;;27.77;39.61;98772.34;5056752;28;20434;-82
2022/08/22 12:12:41;;;;;;;6.50;2.70;;;;;;;27.31;41.65;98774.13;5067960;28;20147;-82
2022/08/22 12:15:22;;;;;;;6.93;2.45;;;;;;;28.14;41.82;98765.22;5080482;28;20029;-83
2022/08/22 12:18:06;;;;;;;5.60;2.83;;;;;;;28.11;41.73;98770.66;5065101;28;20370;-83
2022/08/22 12:20:41;;;;;;;3.17;2.38;;;;;;;28.27;41.14;98757.56;5068761;28;20384;-82
2022/08/22 12:23:18;;;;;;;5.57;3.20;;;;;;;27.41;41.42;98762.63;5076132;28;20039;-83
2022/08/22 12:25:57;;;;;;;13.60;2.83;;;;;;;27.07;41.46;98766.19;5071470;28;20035;-82
2022/08/22 12:28:38;;;;;;;4.63;2.55;;;;;;;27.83;40.23;98762.66;5067706;28;20107;-82
2022/08/22 12:31:28;;;;;;;5.95;3.05;;;;;;;26.80;40.76;98761.66;5066726;28;20106;-82
2022/08/22 12:34:09;;;;;;;4.70;2.70;;;;;;;27.92;42.72;98748.69;5067720;28;20052;-82
2022/08/22 12:36:47;;;;;;;4.45;2.72;;;;;;;28.39;39.98;98746.41;5069641;28;20510;-83
2022/08/22 12:39:34;;;;;;;2.42;2.05;;;;;;;28.32;41.90;98742.75;5064882;28;20032;-83
2022/08/22 12:42:25;;;;;;;4.90;2.67;;;;;;;28.20;40.51;98740.97;5061804;28;20531;-83